Time;durP1;ratioP1;P1;durP2;ratioP2;P2;SDS_P1;SDS_P2;PMS_P1;PMS_P2;Temp;Humidity;BMP_temperature;BMP_pressure;BME280_temperature;BME280_humidity;BME280_pressure;Samples;Min_cycle;Max_cycle;Signal;HPM_P1;HPM_P2
2024/03/10 00:00:57;;;;;;;31.48;19.30;;;;;;;8.27;100.00;99574.22;5044598;28;20032;-69
2024/03/10 00:03:22;;;;;;;31.42;20.15;;;;;;;8.25;100.00;99565.44;5043272;28;20438;-69
2024/03/10 00:05:48;;;;;;;31.35;19.98;;;;;;;8.19;100.00;99568.97;5043236;28;20076;-69
2024/03/10 00:08:14;;;;;;;31.23;20.58;;;;;;;8.19;100.00;99578.63;5044234;28;20021;-70
2024/03/10 00:10:41;;;;;;;30.60;18.98;;;;;;;8.15;100.00;99582.16;5041891;28;20519;-70
2024/03/10 00:13:08;;;;;;;30.88;20.08;;;;;;;8.11;100.00;99577.78;5045223;28;20033;-71
2024/03/10 00:15:34;;;;;;;30.45;19.42;;;;;;;8.12;100.00;99590.09;5037743;28;20505;-73
2024/03/10 00:17:59;;;;;;;31.08;19.67;;;;;;;8.08;100.00;99585.72;5044319;28;20056;-71
2024/03/10 00:20:25;;;;;;;31.23;19.67;;;;;;;8.06;100.00;99585.72;5041524;28;20035;-71
2024/03/10 00:22:50;;;;;;;32.17;19.83;;;;;;;8.05;100.00;99588.38;5041991;28;20108;-69
2024/03/10 00:25:16;;;;;;;30.83;20.05;;;;;;;8.02;100.00;99603.31;5043845;28;20032;-71
2024/03/10 00:27:41;;;;;;;30.23;18.25;;;;;;;8.00;100.00;99591.91;5042076;28;20036;-73
2024/03/10 00:30:09;;;;;;;30.25;19.48;;;;;;;7.94;100.00;99594.56;5044771;28;20376;-69
2024/03/10 00:32:38;;;;;;;30.95;19.15;;;;;;;7.86;100.00;99591.09;5041251;28;20034;-70
2024/03/10 00:35:08;;;;;;;30.08;18.42;;;;;;;7.80;100.00;99591.13;5044713;28;20029;-69
2024/03/10 00:37:34;;;;;;;30.85;19.48;;;;;;;7.72;100.00;99609.56;5037483;28;20037;-71
2024/03/10 00:40:01;;;;;;;30.23;19.48;;;;;;;7.70;100.00;99615.72;5044112;28;20036;-70
2024/03/10 00:42:26;;;;;;;29.75;19.23;;;;;;;7.72;100.00;99617.47;5041017;28;20434;-73
2024/03/10 00:44:52;;;;;;;30.40;18.67;;;;;;;7.71;100.00;99593.78;5042974;28;20042;-72
2024/03/10 00:47:18;;;;;;;30.70;18.88;;;;;;;7.62;100.00;99585.03;5043188;28;20029;-70
2024/03/10 00:49:43;;;;;;;30.17;18.85;;;;;;;7.58;100.00;99564.91;5041790;28;20464;-69
2024/03/10 00:52:09;;;;;;;30.00;18.90;;;;;;;7.56;100.00;99556.16;5044319;28;20029;-69
2024/03/10 00:54:38;;;;;;;28.85;18.17;;;;;;;7.57;100.00;99550.00;5039333;28;20044;-69
2024/03/10 00:57:04;;;;;;;30.75;19.08;;;;;;;7.57;100.00;99549.13;5037132;28;20017;-68
2024/03/10 00:59:29;;;;;;;29.13;18.50;;;;;;;7.55;100.00;99548.25;5043791;28;20032;-69
2024/03/10 01:01:55;;;;;;;30.70;19.60;;;;;;;7.55;100.00;99554.38;5041081;28;20029;-73
2024/03/10 01:04:20;;;;;;;29.60;18.65;;;;;;;7.54;100.00;99552.63;5042965;28;20380;-69
2024/03/10 01:06:46;;;;;;;29.75;19.40;;;;;;;7.48;100.00;99555.28;5043305;28;20029;-69
2024/03/10 01:09:13;;;;;;;30.58;19.23;;;;;;;7.50;100.00;99556.19;5040062;28;20087;-69
2024/03/10 01:11:40;;;;;;;29.52;18.70;;;;;;;7.51;100.00;99560.53;5044279;28;20116;-72
2024/03/10 01:14:06;;;;;;;30.65;18.60;;;;;;;7.46;100.00;99559.69;5039501;28;20104;-69
2024/03/10 01:16:32;;;;;;;29.50;19.02;;;;;;;7.44;100.00;99556.19;5042721;28;20136;-69
2024/03/10 01:18:57;;;;;;;28.80;18.40;;;;;;;7.44;100.00;99556.19;5041641;28;20045;-72
2024/03/10 01:21:23;;;;;;;29.73;18.40;;;;;;;7.46;100.00;99546.53;5041252;28;20041;-69
2024/03/10 01:23:48;;;;;;;31.40;18.13;;;;;;;7.48;100.00;99544.78;5042803;28;20089;-76
2024/03/10 01:26:14;;;;;;;32.05;17.90;;;;;;;7.48;100.00;99550.03;5041444;28;20389;-70
2024/03/10 01:28:39;;;;;;;29.33;17.95;;;;;;;7.48;100.00;99531.63;5044193;28;20029;-75
2024/03/10 01:31:09;;;;;;;29.55;18.58;;;;;;;7.45;100.00;99539.53;5040909;28;20523;-73
2024/03/10 01:33:35;;;;;;;29.58;18.33;;;;;;;7.46;100.00;99538.66;5044268;28;20029;-83
2024/03/10 01:36:00;;;;;;;29.92;18.30;;;;;;;7.43;100.00;99533.41;5040866;28;20538;-69
2024/03/10 01:38:26;;;;;;;29.52;17.80;;;;;;;7.44;100.00;99528.16;5043064;28;20060;-69
2024/03/10 01:40:51;;;;;;;29.80;18.55;;;;;;;7.45;100.00;99526.38;5042306;28;20055;-70
2024/03/10 01:43:17;;;;;;;28.75;17.95;;;;;;;7.43;100.00;99515.88;5041807;28;20056;-71
2024/03/10 01:45:42;;;;;;;29.65;17.73;;;;;;;7.40;100.00;99512.41;5043438;28;20031;-72
2024/03/10 01:48:08;;;;;;;28.63;17.77;;;;;;;7.39;100.00;99513.25;5040511;28;20038;-69
2024/03/10 01:50:33;;;;;;;27.85;17.05;;;;;;;7.40;100.00;99507.13;5043662;28;20510;-69
2024/03/10 01:52:59;;;;;;;28.92;18.15;;;;;;;7.38;100.00;99503.63;5041034;28;20025;-70
2024/03/10 01:55:25;;;;;;;30.05;18.30;;;;;;;7.34;100.00;99505.41;5042565;28;20026;-69
2024/03/10 01:57:52;;;;;;;28.58;17.58;;;;;;;7.35;100.00;99501.00;5042062;28;20031;-70
2024/03/10 02:00:19;;;;;;;28.55;17.55;;;;;;;7.31;100.00;99492.25;5041577;28;20369;-69
2024/03/10 02:02:44;;;;;;;28.10;16.90;;;;;;;7.31;100.00;99485.25;5025410;28;20033;-69
2024/03/10 02:05:10;;;;;;;28.75;17.58;;;;;;;7.30;100.00;99486.13;5040976;28;20037;-69
2024/03/10 02:07:36;;;;;;;28.55;16.77;;;;;;;7.25;100.00;99477.41;5047414;28;20036;-68
2024/03/10 02:10:06;;;;;;;28.30;16.98;;;;;;;7.27;100.00;99486.13;5044258;28;20087;-69
2024/03/10 02:12:32;;;;;;;28.58;17.55;;;;;;;7.26;100.00;99487.00;5047252;28;20483;-69
2024/03/10 02:15:00;;;;;;;29.02;17.05;;;;;;;7.22;100.00;99487.88;5044951;28;20053;-69
2024/03/10 02:17:26;;;;;;;28.38;17.33;;;;;;;7.17;100.00;99481.78;5028429;28;20040;-69
2024/03/10 02:19:52;;;;;;;29.00;17.42;;;;;;;7.18;100.00;99477.41;5045303;28;20439;-69
2024/03/10 02:22:20;;;;;;;29.88;17.92;;;;;;;7.18;100.00;99475.66;5044986;28;20037;-71
2024/03/10 02:24:48;;;;;;;28.15;17.17;;;;;;;7.17;100.00;99463.41;5046270;28;20033;-71
2024/03/10 02:27:16;;;;;;;29.25;17.60;;;;;;;7.13;100.00;99452.00;5044311;28;20480;-69
2024/03/10 02:48:53;;;;;;;29.00;17.33;;;;;;;7.05;100.00;99443.28;5045018;28;20396;-82
2024/03/10 02:51:19;;;;;;;29.90;17.83;;;;;;;7.02;100.00;99434.53;5046632;28;20029;-84
2024/03/10 02:53:46;;;;;;;28.73;17.40;;;;;;;6.97;100.00;99435.44;5043334;28;20044;-81
2024/03/10 02:56:13;;;;;;;29.52;17.88;;;;;;;6.94;100.00;99427.56;5046539;28;20064;-83
2024/03/10 02:58:39;;;;;;;29.25;17.50;;;;;;;6.89;100.00;99431.97;5043393;28;20500;-83
2024/03/10 03:01:05;;;;;;;28.67;16.85;;;;;;;6.92;100.00;99455.59;5046841;28;20551;-83
2024/03/10 03:03:31;;;;;;;28.85;17.60;;;;;;;6.91;100.00;99461.72;5043959;28;20036;-82
2024/03/10 03:05:57;;;;;;;29.17;17.30;;;;;;;6.86;100.00;99445.13;5045550;28;20075;-80
2024/03/10 03:08:24;;;;;;;29.05;17.63;;;;;;;6.78;100.00;99428.47;5044745;28;20029;-81
2024/03/10 03:10:50;;;;;;;27.83;16.80;;;;;;;6.80;100.00;99445.09;5043647;28;20483;-69
2024/03/10 03:13:16;;;;;;;28.88;16.88;;;;;;;6.75;100.00;99446.88;5045877;28;20037;-70
2024/03/10 03:15:43;;;;;;;29.65;17.67;;;;;;;6.70;100.00;99432.88;5025503;28;20039;-69
2024/03/10 03:18:08;;;;;;;28.88;17.20;;;;;;;6.66;100.00;99403.13;5045875;28;20033;-69
2024/03/10 03:20:35;;;;;;;29.23;17.45;;;;;;;6.68;100.00;99429.38;5042723;28;20506;-69
2024/03/10 03:23:04;;;;;;;28.30;17.60;;;;;;;6.62;100.00;99412.75;5045744;28;20479;-69
2024/03/10 03:25:29;;;;;;;28.27;17.13;;;;;;;6.63;100.00;99419.75;5043587;28;20021;-71
2024/03/10 03:27:55;;;;;;;29.23;17.70;;;;;;;6.62;100.00;99423.25;5043410;28;20033;-69
2024/03/10 03:30:22;;;;;;;28.98;17.58;;;;;;;6.65;100.00;99434.66;5044607;28;20021;-80
2024/03/10 03:32:47;;;;;;;28.95;17.50;;;;;;;6.64;100.00;99431.16;5043732;28;20025;-83
2024/03/10 03:35:16;;;;;;;29.13;17.58;;;;;;;6.66;100.00;99439.91;5045462;28;20025;-84
2024/03/10 03:37:42;;;;;;;29.25;17.70;;;;;;;6.71;100.00;99453.88;5042610;28;20040;-80
2024/03/10 03:40:07;;;;;;;29.13;17.90;;;;;;;6.74;100.00;99446.03;5044944;28;20028;-84
2024/03/10 03:42:35;;;;;;;28.45;17.15;;;;;;;6.73;100.00;99446.88;5041374;28;20022;-68
2024/03/10 03:45:01;;;;;;;28.98;17.52;;;;;;;6.71;100.00;99439.88;5045098;28;20041;-72
2024/03/10 03:47:27;;;;;;;29.10;17.65;;;;;;;6.67;100.00;99432.88;5043602;28;20025;-68
2024/03/10 03:49:54;;;;;;;29.42;17.90;;;;;;;6.62;100.00;99433.75;5043991;28;20040;-71
2024/03/10 03:52:20;;;;;;;29.30;18.08;;;;;;;6.57;100.00;99432.91;5041727;28;20036;-69
2024/03/10 03:54:45;;;;;;;29.60;17.77;;;;;;;6.53;100.00;99431.16;5043952;28;20029;-70
2024/03/10 03:57:11;;;;;;;29.23;17.63;;;;;;;6.49;100.00;99424.16;5042094;28;20491;-72
2024/03/10 03:59:39;;;;;;;29.45;17.65;;;;;;;6.42;100.00;99430.31;5045798;28;20390;-69
2024/03/10 04:02:05;;;;;;;29.27;18.30;;;;;;;6.36;100.00;99432.94;5042611;28;20392;-71
2024/03/10 04:04:31;;;;;;;29.02;18.42;;;;;;;6.30;100.00;99430.31;5044807;28;20494;-69
2024/03/10 04:06:57;;;;;;;29.45;18.52;;;;;;;6.24;100.00;99420.69;5042246;28;20116;-70
2024/03/10 04:09:22;;;;;;;29.05;18.17;;;;;;;6.23;100.00;99429.44;5043330;28;20033;-69
2024/03/10 04:11:48;;;;;;;29.20;18.63;;;;;;;6.19;100.00;99425.97;5044563;28;20079;-69
2024/03/10 04:14:13;;;;;;;29.85;18.20;;;;;;;6.21;100.00;99432.06;5042224;28;20032;-73
2024/03/10 04:16:39;;;;;;;29.50;18.95;;;;;;;6.20;100.00;99425.06;5045120;28;20480;-70
2024/03/10 04:19:04;;;;;;;29.60;18.60;;;;;;;6.20;100.00;99418.94;5041447;28;20052;-68
2024/03/10 04:21:30;;;;;;;29.38;18.80;;;;;;;6.18;100.00;99420.72;5043130;28;20043;-69
2024/03/10 04:23:56;;;;;;;29.77;18.98;;;;;;;6.16;100.00;99411.94;5042752;28;20086;-70
2024/03/10 04:26:23;;;;;;;29.17;18.85;;;;;;;6.14;100.00;99413.72;5042797;28;20117;-73
2024/03/10 04:28:49;;;;;;;30.25;18.98;;;;;;;6.15;100.00;99405.84;5043046;28;20041;-72
2024/03/10 04:31:16;;;;;;;29.88;18.50;;;;;;;6.14;100.00;99406.69;5040588;28;20022;-69
2024/03/10 04:33:42;;;;;;;31.02;19.42;;;;;;;6.12;100.00;99400.59;5044611;28;20025;-69
2024/03/10 04:36:08;;;;;;;29.38;18.65;;;;;;;6.11;100.00;99404.09;5041524;28;20388;-69
2024/03/10 04:38:34;;;;;;;31.65;19.08;;;;;;;6.10;100.00;99397.06;5044335;28;20029;-69
2024/03/10 04:40:59;;;;;;;29.52;18.60;;;;;;;6.07;100.00;99402.34;5042012;28;20071;-71
2024/03/10 04:43:25;;;;;;;29.27;19.02;;;;;;;6.09;100.00;99405.84;5043509;28;20033;-69
2024/03/10 04:45:53;;;;;;;31.35;19.25;;;;;;;6.07;100.00;99404.97;5043155;28;20036;-69
2024/03/10 04:48:18;;;;;;;30.75;19.67;;;;;;;6.12;100.00;99395.34;5042039;28;20033;-72
2024/03/10 04:50:44;;;;;;;30.42;19.63;;;;;;;6.07;100.00;99392.72;5043003;28;20040;-72
2024/03/10 04:53:10;;;;;;;30.73;19.58;;;;;;;6.06;100.00;99396.22;5040069;28;20037;-71
2024/03/10 04:55:35;;;;;;;30.98;19.90;;;;;;;6.05;100.00;99393.59;5044005;28;20031;-69
2024/03/10 04:58:00;;;;;;;30.13;19.05;;;;;;;6.07;100.00;99386.59;5042165;28;20120;-72
2024/03/10 05:00:26;;;;;;;30.83;18.63;;;;;;;6.06;100.00;99392.75;5043154;28;20032;-69
2024/03/10 05:02:51;;;;;;;30.55;19.83;;;;;;;6.05;100.00;99385.72;5043383;28;20036;-69
2024/03/10 05:05:17;;;;;;;30.33;19.60;;;;;;;6.01;100.00;99391.84;5040547;28;20029;-74
2024/03/10 05:07:42;;;;;;;30.10;19.17;;;;;;;5.97;100.00;99380.50;5044348;28;20037;-73
2024/03/10 05:10:08;;;;;;;31.05;19.73;;;;;;;5.96;100.00;99376.09;5041075;28;20026;-75
2024/03/10 05:12:35;;;;;;;31.23;19.77;;;;;;;5.96;100.00;99373.47;5043907;28;20120;-79
2024/03/10 05:15:03;;;;;;;30.55;19.55;;;;;;;5.91;100.00;99380.44;5041721;28;20033;-78
2024/03/10 05:17:29;;;;;;;30.92;20.08;;;;;;;5.84;100.00;99379.59;5043633;28;20043;-83
2024/03/10 05:19:55;;;;;;;30.73;19.88;;;;;;;5.85;100.00;99386.56;5042428;28;20041;-69
2024/03/10 05:22:20;;;;;;;31.63;20.15;;;;;;;5.79;100.00;99381.31;5042139;28;20026;-69
2024/03/10 05:24:46;;;;;;;30.75;19.27;;;;;;;5.78;100.00;99384.81;5043540;28;20155;-69
2024/03/10 05:27:11;;;;;;;31.38;20.30;;;;;;;5.75;100.00;99392.66;5040701;28;20029;-70
2024/03/10 05:29:37;;;;;;;30.40;19.88;;;;;;;5.72;100.00;99383.06;5044224;28;20035;-68
2024/03/10 05:32:05;;;;;;;30.45;19.25;;;;;;;5.70;100.00;99376.06;5040121;28;20036;-68
2024/03/10 05:34:32;;;;;;;30.98;19.90;;;;;;;5.65;100.00;99370.84;5043271;28;20025;-70
2024/03/10 05:37:00;;;;;;;31.55;20.33;;;;;;;5.64;100.00;99370.84;5041705;28;20090;-68
2024/03/10 05:39:27;;;;;;;31.05;19.45;;;;;;;5.61;100.00;99371.69;5042755;28;20109;-69
2024/03/10 05:41:52;;;;;;;31.45;20.63;;;;;;;5.58;100.00;99388.28;5044681;28;20025;-68
2024/03/10 05:44:18;;;;;;;31.17;20.23;;;;;;;5.58;100.00;99388.28;5045375;28;20037;-69
2024/03/10 05:46:46;;;;;;;32.13;20.48;;;;;;;5.53;100.00;99378.66;5047620;28;20115;-69
2024/03/10 05:49:11;;;;;;;30.88;20.45;;;;;;;5.52;100.00;99376.91;5044454;28;20499;-68
2024/03/10 05:51:37;;;;;;;30.83;20.02;;;;;;;5.47;100.00;99379.53;5040347;28;20030;-68
2024/03/10 05:54:05;;;;;;;31.70;20.88;;;;;;;5.44;100.00;99368.19;5046062;28;20150;-70
2024/03/10 05:56:32;;;;;;;30.90;20.67;;;;;;;5.44;100.00;99369.03;5045276;28;20108;-68
2024/03/10 05:59:00;;;;;;;31.70;20.23;;;;;;;5.45;100.00;99360.31;5046501;28;20032;-69
2024/03/10 06:01:26;;;;;;;32.33;20.38;;;;;;;5.43;100.00;99367.28;5045963;28;20029;-70
2024/03/10 06:03:52;;;;;;;31.45;20.20;;;;;;;5.41;100.00;99364.66;5045810;28;20373;-68
2024/03/10 06:06:23;;;;;;;31.98;20.65;;;;;;;5.42;100.00;99378.66;5045564;28;20040;-71
2024/03/10 06:08:49;;;;;;;31.30;20.67;;;;;;;5.39;100.00;99370.78;5045211;28;20046;-72
2024/03/10 06:11:14;;;;;;;31.23;20.23;;;;;;;5.39;100.00;99386.53;5045739;28;20775;-72
2024/03/10 06:13:40;;;;;;;32.08;20.85;;;;;;;5.36;100.00;99379.53;5043981;28;20025;-71
2024/03/10 06:16:07;;;;;;;31.55;20.65;;;;;;;5.34;100.00;99383.88;5047582;28;20468;-72
2024/03/10 06:25:22;;;;;;;31.20;20.63;;;;;;;5.34;100.00;99385.63;5044297;28;20068;-68
2024/03/10 06:26:48;;;;;;;33.10;21.10;;;;;;;5.37;100.00;99386.53;5042089;28;20498;-74
2024/03/10 06:29:13;;;;;;;31.65;20.77;;;;;;;5.42;100.00;99383.91;5045732;28;20036;-72
2024/03/10 06:31:39;;;;;;;31.73;20.67;;;;;;;5.41;100.00;99387.38;5043780;28;20025;-69
2024/03/10 06:34:05;;;;;;;30.90;20.25;;;;;;;5.45;100.00;99383.03;5046624;28;20055;-68
2024/03/10 06:36:30;;;;;;;31.38;20.38;;;;;;;5.48;100.00;99386.53;5043119;28;20021;-68
2024/03/10 06:38:57;;;;;;;31.17;20.33;;;;;;;5.52;100.00;99376.91;5045801;28;20051;-67
2024/03/10 06:41:23;;;;;;;30.73;19.58;;;;;;;5.54;100.00;99380.44;5045575;28;20025;-68
2024/03/10 06:43:49;;;;;;;30.98;19.98;;;;;;;5.59;100.00;99376.03;5044252;28;20104;-68
2024/03/10 06:46:15;;;;;;;32.05;20.50;;;;;;;5.65;100.00;99380.44;5046545;28;20475;-68
2024/03/10 06:48:41;;;;;;;31.63;20.70;;;;;;;5.68;100.00;99377.81;5043373;28;20026;-69
2024/03/10 06:51:07;;;;;;;31.30;20.13;;;;;;;5.74;100.00;99383.06;5046738;28;20465;-80
2024/03/10 06:53:33;;;;;;;32.00;20.65;;;;;;;5.76;100.00;99371.69;5043250;28;20125;-78
2024/03/10 06:55:58;;;;;;;31.65;20.45;;;;;;;5.82;100.00;99380.44;5044280;28;20410;-83
2024/03/10 06:58:24;;;;;;;31.17;20.42;;;;;;;5.88;100.00;99391.84;5045283;28;20107;-83
2024/03/10 07:00:50;;;;;;;31.23;20.08;;;;;;;5.92;100.00;99385.69;5043402;28;20033;-83
2024/03/10 07:03:16;;;;;;;31.35;20.13;;;;;;;5.99;100.00;99386.59;5046193;28;20506;-83
2024/03/10 07:05:42;;;;;;;30.58;19.63;;;;;;;6.07;100.00;99391.84;5043441;28;20053;-80
2024/03/10 07:08:09;;;;;;;30.92;20.17;;;;;;;6.13;100.00;99391.84;5046286;28;20025;-77
2024/03/10 07:10:41;;;;;;;32.28;20.65;;;;;;;6.20;100.00;99393.56;5043780;28;20022;-69
2024/03/10 07:13:08;;;;;;;30.35;19.58;;;;;;;6.29;100.00;99387.44;5046659;28;20036;-68
2024/03/10 07:15:33;;;;;;;31.45;20.15;;;;;;;6.38;100.00;99392.69;5044107;28;20052;-69
2024/03/10 07:17:59;;;;;;;31.08;19.77;;;;;;;6.44;100.00;99391.81;5043880;28;20395;-83
2024/03/10 07:20:25;;;;;;;29.60;18.52;;;;;;;6.49;100.00;99395.28;5044250;28;20049;-68
2024/03/10 07:22:51;;;;;;;30.00;18.90;;;;;;;6.53;100.00;99397.03;5043965;28;20030;-68
2024/03/10 07:25:16;;;;;;;30.48;19.00;;;;;;;6.55;100.00;99390.03;5045830;28;20056;-69
2024/03/10 07:27:43;;;;;;;30.45;19.50;;;;;;;6.57;100.00;99398.78;5043045;28;20480;-67
2024/03/10 07:30:09;;;;;;;30.00;18.77;;;;;;;6.60;100.00;99392.66;5046119;28;20047;-67
2024/03/10 07:32:35;;;;;;;29.45;18.73;;;;;;;6.61;100.00;99390.03;5043178;28;20049;-68
2024/03/10 07:35:01;;;;;;;29.48;18.80;;;;;;;6.66;100.00;99378.63;5045026;28;20029;-69
2024/03/10 07:37:27;;;;;;;30.15;18.38;;;;;;;6.69;100.00;99381.25;5043972;28;20364;-69
2024/03/10 07:39:56;;;;;;;29.13;17.83;;;;;;;6.70;100.00;99377.72;5043669;28;20033;-68
2024/03/10 07:42:22;;;;;;;28.77;17.92;;;;;;;6.75;100.00;99370.72;5044814;28;20033;-68
2024/03/10 07:44:47;;;;;;;29.60;18.20;;;;;;;6.76;100.00;99380.34;5042945;28;20174;-69
2024/03/10 07:47:13;;;;;;;29.13;17.85;;;;;;;6.81;100.00;99381.19;5045596;28;20047;-68
2024/03/10 07:49:39;;;;;;;29.45;17.95;;;;;;;6.80;100.00;99380.31;5037093;28;20121;-69
2024/03/10 07:52:05;;;;;;;29.10;18.00;;;;;;;6.83;100.00;99374.19;5044993;28;20024;-70
2024/03/10 07:54:34;;;;;;;28.60;17.80;;;;;;;6.86;100.00;99384.69;5042989;28;20025;-71
2024/03/10 07:56:59;;;;;;;29.73;17.48;;;;;;;6.87;100.00;99386.41;5044379;28;20026;-72
2024/03/10 07:59:25;;;;;;;28.80;17.75;;;;;;;6.91;100.00;99384.66;5043897;28;20104;-73
2024/03/10 08:01:51;;;;;;;28.48;16.88;;;;;;;6.96;100.00;99396.00;5042966;28;20468;-69
2024/03/10 08:04:17;;;;;;;29.00;17.42;;;;;;;7.02;100.00;99396.00;5044861;28;20033;-70
2024/03/10 08:06:42;;;;;;;27.80;16.70;;;;;;;7.10;100.00;99396.84;5041668;28;20079;-69
2024/03/10 08:09:09;;;;;;;28.58;17.00;;;;;;;7.21;100.00;99399.44;5043848;28;20044;-68
2024/03/10 08:11:35;;;;;;;28.45;16.73;;;;;;;7.23;100.00;99397.66;5041094;28;20543;-69
2024/03/10 08:14:01;;;;;;;28.65;17.35;;;;;;;7.23;100.00;99405.53;5042714;28;20021;-71
2024/03/10 08:16:26;;;;;;;27.67;16.83;;;;;;;7.25;100.00;99395.91;5043095;28;20100;-68
2024/03/10 08:18:52;;;;;;;28.27;17.20;;;;;;;7.29;100.00;99408.13;5042621;28;20041;-72
2024/03/10 08:21:18;;;;;;;26.80;15.93;;;;;;;7.31;100.00;99395.88;5044242;28;20037;-69
2024/03/10 08:23:44;;;;;;;27.98;17.05;;;;;;;7.32;100.00;99402.88;5041546;28;20115;-67
2024/03/10 08:26:12;;;;;;;28.45;17.52;;;;;;;7.34;100.00;99402.88;5043878;28;20495;-67
2024/03/10 08:28:38;;;;;;;28.20;17.10;;;;;;;7.35;100.00;99391.44;5041786;28;20179;-68
2024/03/10 08:31:04;;;;;;;26.90;16.38;;;;;;;7.37;100.00;99388.81;5044174;28;20493;-67
2024/03/10 08:33:29;;;;;;;26.70;16.05;;;;;;;7.40;100.00;99396.72;5042648;28;20021;-67
2024/03/10 08:35:55;;;;;;;26.88;16.40;;;;;;;7.46;100.00;99404.56;5042771;28;20032;-71
2024/03/10 08:38:20;;;;;;;27.45;15.73;;;;;;;7.51;100.00;99400.13;5042613;28;20044;-69
2024/03/10 08:40:46;;;;;;;27.73;16.50;;;;;;;7.53;100.00;99403.63;5041918;28;20383;-67
2024/03/10 08:43:13;;;;;;;28.30;15.85;;;;;;;7.60;100.00;99409.72;5045132;28;20037;-67
2024/03/10 08:45:39;;;;;;;27.60;16.40;;;;;;;7.61;100.00;99404.44;5041435;28;20034;-70
2024/03/10 08:48:07;;;;;;;27.20;16.05;;;;;;;7.68;100.00;99394.75;5044333;28;20033;-69
2024/03/10 08:50:33;;;;;;;28.20;16.35;;;;;;;7.78;100.00;99392.94;5041011;28;20037;-69
2024/03/10 08:52:58;;;;;;;27.65;16.02;;;;;;;7.91;100.00;99396.38;5040995;28;20033;-69
2024/03/10 08:55:24;;;;;;;26.85;15.68;;;;;;;8.01;100.00;99385.75;5042907;28;20032;-68
2024/03/10 08:57:49;;;;;;;27.33;15.63;;;;;;;8.12;100.00;99390.91;5043518;28;20106;-72
2024/03/10 09:00:17;;;;;;;27.05;15.43;;;;;;;8.26;100.00;99401.31;5041289;28;20068;-69
2024/03/10 09:02:42;;;;;;;26.20;15.63;;;;;;;8.40;100.00;99408.22;5044542;28;20021;-77
2024/03/10 09:05:12;;;;;;;26.67;15.73;;;;;;;8.48;100.00;99407.28;5040960;28;20087;-68
2024/03/10 09:07:38;;;;;;;26.85;15.70;;;;;;;8.55;100.00;99401.06;5043819;28;20033;-68
2024/03/10 09:10:04;;;;;;;26.23;15.73;;;;;;;8.63;100.00;99400.97;5041871;28;20091;-68
2024/03/10 09:12:30;;;;;;;26.50;14.95;;;;;;;8.70;100.00;99396.53;5043089;28;20022;-78
2024/03/10 09:14:57;;;;;;;26.15;14.98;;;;;;;8.81;100.00;99405.19;5042302;28;20036;-80
2024/03/10 09:17:23;;;;;;;25.75;14.80;;;;;;;8.90;100.00;99393.66;5042023;28;20026;-67
2024/03/10 09:19:49;;;;;;;26.85;15.23;;;;;;;8.96;100.00;99398.00;5043179;28;20049;-69
2024/03/10 09:22:15;;;;;;;25.63;14.65;;;;;;;9.02;100.00;99392.66;5039537;28;20037;-70
2024/03/10 09:24:42;;;;;;;27.15;15.23;;;;;;;9.15;100.00;99398.63;5043152;28;20025;-68
2024/03/10 09:27:08;;;;;;;26.08;14.63;;;;;;;9.25;100.00;99397.63;5040724;28;20373;-69
2024/03/10 09:29:34;;;;;;;26.50;14.85;;;;;;;9.36;100.00;99414.19;5043434;28;20132;-67
2024/03/10 09:32:01;;;;;;;25.40;14.07;;;;;;;9.40;100.00;99415.88;5041692;28;20025;-68
2024/03/10 09:34:26;;;;;;;26.00;14.48;;;;;;;9.36;100.00;99418.56;5042229;28;20532;-68
2024/03/10 09:36:54;;;;;;;25.73;15.30;;;;;;;9.37;100.00;99420.31;5042973;28;20039;-69
2024/03/10 09:39:22;;;;;;;25.30;14.43;;;;;;;9.43;100.00;99405.25;5041068;28;20116;-69
2024/03/10 09:41:49;;;;;;;25.55;14.63;;;;;;;9.53;100.00;99390.19;5042180;28;20029;-70
2024/03/10 09:44:22;;;;;;;25.42;14.40;;;;;;;9.74;100.00;99396.03;5040770;28;20033;-73
2024/03/10 09:46:51;;;;;;;26.13;14.90;;;;;;;9.96;100.00;99393.97;5037959;28;20556;-70
2024/03/10 09:49:19;;;;;;;25.58;14.18;;;;;;;10.04;100.00;99396.47;5043473;28;20029;-68
2024/03/10 09:51:49;;;;;;;25.30;14.57;;;;;;;10.05;100.00;99388.50;5040273;28;20051;-68
2024/03/10 09:54:15;;;;;;;25.60;14.82;;;;;;;10.09;100.00;99377.00;5043986;28;20021;-69
2024/03/10 09:56:41;;;;;;;26.25;14.50;;;;;;;10.18;100.00;99370.69;5040404;28;20080;-69
2024/03/10 09:59:14;;;;;;;26.40;14.80;;;;;;;10.29;100.00;99378.41;5043437;28;20472;-69
2024/03/10 10:01:42;;;;;;;;;;;;;;;10.57;100.00;99385.88;5040983;28;20032;-68
2024/03/10 10:04:10;;;;;;;25.45;14.90;;;;;;;10.51;100.00;99386.00;5043513;28;19912;-69
2024/03/10 10:06:40;;;;;;;25.75;14.55;;;;;;;10.61;100.00;99382.28;5039490;28;20052;-72
2024/03/10 10:09:10;;;;;;;25.83;14.75;;;;;;;10.69;100.00;99374.19;5042956;28;20025;-69
2024/03/10 10:11:41;;;;;;;24.48;13.88;;;;;;;10.66;100.00;99391.00;5041017;28;20030;-73
2024/03/10 10:14:14;;;;;;;25.58;14.40;;;;;;;10.74;100.00;99378.50;5043299;28;20068;-70
2024/03/10 10:16:50;;;;;;;24.58;13.73;;;;;;;10.92;100.00;99379.03;5040083;28;20095;-73
2024/03/10 10:19:16;;;;;;;25.13;14.18;;;;;;;11.01;100.00;99378.84;5040685;28;20052;-69
2024/03/10 10:21:43;;;;;;;24.98;13.75;;;;;;;11.14;100.00;99387.41;5044143;28;20037;-68
2024/03/10 10:24:10;;;;;;;24.35;13.55;;;;;;;11.10;100.00;99391.88;5043947;28;20032;-76
2024/03/10 10:26:36;;;;;;;25.00;13.70;;;;;;;11.11;100.00;99383.06;5041314;28;20037;-82
2024/03/10 10:29:07;;;;;;;24.70;13.80;;;;;;;11.26;100.00;99389.78;5046793;28;20029;-79
2024/03/10 10:31:33;;;;;;;25.17;13.55;;;;;;;11.39;100.00;99394.78;5045158;28;20033;-82
2024/03/10 10:33:59;;;;;;;24.77;14.05;;;;;;;11.37;100.00;99376.31;5046336;28;20068;-77
2024/03/10 10:36:24;;;;;;;25.42;13.40;;;;;;;11.33;100.00;99379.94;5045534;28;20434;-73
2024/03/10 10:38:50;;;;;;;25.42;14.50;;;;;;;11.30;100.00;99398.50;5043974;28;20041;-79
2024/03/10 10:41:16;;;;;;;25.80;13.93;;;;;;;11.44;100.00;99396.44;5047375;28;20403;-77
2024/03/10 10:43:44;;;;;;;24.52;14.15;;;;;;;11.59;100.00;99391.69;5044417;28;20026;-80
2024/03/10 10:46:10;;;;;;;24.45;14.00;;;;;;;11.64;100.00;99392.47;5045896;28;20056;-81
2024/03/10 10:48:37;;;;;;;25.52;14.07;;;;;;;11.66;100.00;99396.84;5043428;28;20099;-77
2024/03/10 10:51:06;;;;;;;25.08;13.75;;;;;;;11.75;100.00;99398.41;5045489;28;20078;-80
2024/03/10 10:53:32;;;;;;;24.45;13.38;;;;;;;11.86;100.00;99403.44;5045315;28;20033;-82
2024/03/10 10:56:01;;;;;;;24.98;13.73;;;;;;;11.93;100.00;99399.75;5045627;28;20060;-80
2024/03/10 10:58:29;;;;;;;24.60;13.80;;;;;;;12.05;100.00;99413.63;5045658;28;20040;-79
2024/03/10 11:00:59;;;;;;;25.02;14.18;;;;;;;12.09;100.00;99407.34;5046266;28;20096;-79
2024/03/10 11:03:26;;;;;;;25.02;14.35;;;;;;;12.19;100.00;99406.22;5044877;28;20036;-68
2024/03/10 11:06:08;;;;;;;24.52;13.25;;;;;;;12.14;100.00;99403.66;5045889;28;20025;-75
2024/03/10 11:08:39;;;;;;;25.13;13.98;;;;;;;12.07;100.00;99398.56;5046042;28;20026;-73
2024/03/10 11:11:05;;;;;;;24.65;13.40;;;;;;;12.12;100.00;99397.53;5044309;28;20037;-72
2024/03/10 11:13:32;;;;;;;24.67;13.85;;;;;;;12.33;100.00;99403.19;5045902;28;20068;-74
2024/03/10 11:16:11;;;;;;;24.60;13.82;;;;;;;12.48;100.00;99401.91;5045578;28;20036;-77
2024/03/10 11:18:38;;;;;;;25.05;13.65;;;;;;;12.42;100.00;99410.03;5046124;28;20041;-67
2024/03/10 11:21:17;;;;;;;24.40;13.25;;;;;;;12.36;100.00;99401.34;5042858;28;20439;-67
2024/03/10 11:23:50;;;;;;;24.15;13.30;;;;;;;12.40;100.00;99395.97;5046410;28;20103;-67
2024/03/10 11:26:21;;;;;;;23.88;13.23;;;;;;;12.57;100.00;99401.69;5039259;28;20083;-69
2024/03/10 11:29:04;;;;;;;24.63;13.73;;;;;;;12.83;100.00;99393.03;5046445;28;20064;-68
2024/03/10 11:31:30;;;;;;;24.10;13.15;;;;;;;13.00;100.00;99389.88;5045301;28;20048;-80
2024/03/10 11:33:57;;;;;;;23.77;13.35;;;;;;;13.06;100.00;99392.38;5045211;28;20079;-82
2024/03/10 11:36:23;;;;;;;24.85;13.40;;;;;;;13.12;100.00;99386.03;5043418;28;20384;-83
2024/03/10 11:38:52;;;;;;;23.75;13.07;;;;;;;13.47;100.00;99381.47;5045456;28;20032;-82